Bullhead City, AZ

9:10 AM MST on May 20, 2018 (GMT -0700)
Laughlin-Bullhead International

Weather History for KIFP - November, 2013

Change the Weather History Date:

Tuesday, November 12, 2013

  Actual Average Record
Temperature  
Mean Temperature 75 °F -  
Max Temperature 82 °F 72 °F 87 °F (1999)
Min Temperature 68 °F 52 °F 46 °F (2000)
Cooling Degree Days 10    
Growing Degree Days 25 (Base 50)    
Moisture  
Dew Point 24 °F    
Average Humidity 15    
Maximum Humidity 22    
Minimum Humidity 10    
Precipitation  
Precipitation 0.00 in - - ()
Sea Level Pressure  
Sea Level Pressure 30.15 in    
Wind  
Wind Speed 15 mph (NNE)    
Max Wind Speed 24 mph    
Max Gust Speed 32 mph    
Visibility 10 miles    
Events      
Averages and records for this station are not official NWS values.
T = Trace of Precipitation, MM = Missing Value Source: NWS Daily Summary

Daily Weather History Graph

Daily Weather History Graph

Search for Another Location

Airport or City:

Astronomy

Nov. 12, 2013 Rise Set
Actual Time 7:10 AM MST 5:34 PM MST
Civil Twilight 6:43 AM MST 6:00 PM MST
Nautical Twilight 6:13 AM MST 6:31 PM MST
Astronomical Twilight 5:43 AM MST 7:01 PM MST
Moon 2:41 PM MST (11/12) 2:15 AM MST (11/12)
Length of Visible Light 11h 17m
Length of Day
10h 23m
Waxing Gibbous, 77% of the Moon is Illuminated
Nov 12
Waxing Gibbous
Nov 17
Full
Nov 25
Last Quarter
Dec 2
New
Dec 9
First Quarter

Hourly Weather History & Observations

Time (MST) Temp. Dew Point Humidity Pressure Visibility Wind Dir Wind Speed Gust Speed Precip Events Conditions
12:15 AM 73.4 °F 24.8 °F 16% 30.12 in 10.0 mi NE 10.4 mph - N/A   Clear
12:35 AM 71.6 °F 24.8 °F 17% 30.12 in 10.0 mi NNE 10.4 mph - N/A   Clear
12:55 AM 71.6 °F 24.8 °F 17% 30.13 in 10.0 mi NNE 11.5 mph - N/A   Clear
1:15 AM 71.6 °F 24.8 °F 17% 30.13 in 10.0 mi NE 11.5 mph - N/A   Clear
1:35 AM 71.6 °F 24.8 °F 17% 30.13 in 10.0 mi NNE 13.8 mph - N/A   Clear
1:55 AM 71.6 °F 24.8 °F 17% 30.13 in 10.0 mi NE 12.7 mph - N/A   Clear
2:15 AM 71.6 °F 24.8 °F 17% 30.14 in 10.0 mi NE 15.0 mph - N/A   Clear
2:35 AM 71.6 °F 24.8 °F 17% 30.14 in 10.0 mi NE 13.8 mph - N/A   Clear
2:55 AM 71.6 °F 26.6 °F 19% 30.14 in 10.0 mi NE 17.3 mph - N/A   Clear
3:15 AM 71.6 °F 26.6 °F 19% 30.14 in 10.0 mi NE 16.1 mph 23.0 mph N/A   Clear
3:35 AM 71.6 °F 26.6 °F 19% 30.14 in 10.0 mi NE 15.0 mph - N/A   Clear
3:55 AM 69.8 °F 26.6 °F 20% 30.14 in 10.0 mi NE 17.3 mph 24.2 mph N/A   Clear
4:15 AM 69.8 °F 26.6 °F 20% 30.14 in 10.0 mi NE 18.4 mph - N/A   Clear
4:35 AM 69.8 °F 26.6 °F 20% 30.14 in 10.0 mi NE 19.6 mph 24.2 mph N/A   Clear
4:55 AM 68.0 °F 26.6 °F 21% 30.14 in 10.0 mi NE 17.3 mph 20.7 mph N/A   Clear
5:15 AM 69.8 °F 26.6 °F 20% 30.14 in 10.0 mi NE 20.7 mph 24.2 mph N/A   Clear
5:35 AM 69.8 °F 26.6 °F 20% 30.15 in 10.0 mi NE 17.3 mph 25.3 mph N/A   Clear
5:55 AM 68.0 °F 26.6 °F 21% 30.16 in 10.0 mi NE 17.3 mph 21.9 mph N/A   Clear
6:15 AM 69.8 °F 24.8 °F 18% 30.16 in 10.0 mi NE 20.7 mph 26.5 mph N/A   Clear
6:35 AM 69.8 °F 26.6 °F 20% 30.16 in 10.0 mi NE 21.9 mph 28.8 mph N/A   Clear
6:55 AM 68.0 °F 26.6 °F 21% 30.16 in 10.0 mi NE 21.9 mph - N/A   Clear
7:15 AM 68.0 °F 26.6 °F 21% 30.17 in 10.0 mi NNE 18.4 mph 29.9 mph N/A   Clear
7:35 AM 69.8 °F 24.8 °F 18% 30.18 in 10.0 mi NNE 20.7 mph 26.5 mph N/A   Clear
7:55 AM 68.0 °F 26.6 °F 21% 30.19 in 10.0 mi NE 17.3 mph 24.2 mph N/A   Clear
8:15 AM 68.0 °F 26.6 °F 21% 30.20 in 10.0 mi NNE 20.7 mph 27.6 mph N/A   Clear
8:35 AM 69.8 °F 24.8 °F 18% 30.21 in 10.0 mi NE 23.0 mph 26.5 mph N/A   Clear
8:55 AM 71.6 °F 24.8 °F 17% 30.21 in 10.0 mi NE 21.9 mph 27.6 mph N/A   Clear
9:15 AM 71.6 °F 24.8 °F 17% 30.21 in 10.0 mi NE 19.6 mph 27.6 mph N/A   Clear
9:35 AM 73.4 °F 24.8 °F 16% 30.21 in 10.0 mi NNE 21.9 mph 26.5 mph N/A   Clear
9:55 AM 73.4 °F 23.0 °F 15% 30.21 in 10.0 mi NE 23.0 mph 32.2 mph N/A   Clear
10:15 AM 73.4 °F 23.0 °F 15% 30.21 in 10.0 mi NNE 19.6 mph 27.6 mph N/A   Clear
10:35 AM 75.2 °F 23.0 °F 14% 30.21 in 10.0 mi NNE 21.9 mph 26.5 mph N/A   Clear
10:55 AM 75.2 °F 23.0 °F 14% 30.20 in 10.0 mi NNE 21.9 mph 26.5 mph N/A   Clear
11:15 AM 77.0 °F 23.0 °F 13% 30.20 in 10.0 mi NNE 24.2 mph - N/A   Clear
11:35 AM 77.0 °F 24.8 °F 14% 30.19 in 10.0 mi NNE 20.7 mph 28.8 mph N/A   Clear
11:55 AM 77.0 °F 23.0 °F 13% 30.19 in 10.0 mi NNE 20.7 mph 26.5 mph N/A   Clear
12:15 PM 78.8 °F 23.0 °F 13% 30.18 in 10.0 mi NNE 19.6 mph 25.3 mph N/A   Clear
12:35 PM 80.6 °F 23.0 °F 12% 30.17 in 10.0 mi NNE 19.6 mph 26.5 mph N/A   Clear
12:55 PM 80.6 °F 23.0 °F 12% 30.16 in 10.0 mi NNE 18.4 mph 23.0 mph N/A   Clear
1:15 PM 80.6 °F 23.0 °F 12% 30.16 in 10.0 mi NNE 18.4 mph - N/A   Clear
1:35 PM 80.6 °F 23.0 °F 12% 30.15 in 10.0 mi NNE 18.4 mph 27.6 mph N/A   Clear
1:55 PM 82.4 °F 21.2 °F 10% 30.14 in 10.0 mi NNE 23.0 mph - N/A   Clear
2:15 PM 82.4 °F 21.2 °F 10% 30.14 in 10.0 mi NNE 20.7 mph 24.2 mph N/A   Clear
2:35 PM 82.4 °F 21.2 °F 10% 30.13 in 10.0 mi NNE 17.3 mph 20.7 mph N/A   Clear
2:55 PM 82.4 °F 19.4 °F 10% 30.13 in 10.0 mi NNE 17.3 mph 21.9 mph N/A   Clear
3:15 PM 82.4 °F 21.2 °F 10% 30.13 in 10.0 mi NNE 18.4 mph - N/A   Clear
3:35 PM 82.4 °F 19.4 °F 10% 30.12 in 10.0 mi NNE 15.0 mph - N/A   Clear
3:55 PM 82.4 °F 19.4 °F 10% 30.12 in 10.0 mi NNE 15.0 mph 19.6 mph N/A   Clear
4:15 PM 82.4 °F 21.2 °F 10% 30.12 in 10.0 mi NNE 16.1 mph 19.6 mph N/A   Clear
4:35 PM 82.4 °F 21.2 °F 10% 30.12 in 10.0 mi NNE 15.0 mph 21.9 mph N/A   Clear
4:55 PM 80.6 °F 21.2 °F 11% 30.11 in 10.0 mi NNE 13.8 mph - N/A   Clear
5:15 PM 80.6 °F 23.0 °F 12% 30.11 in 10.0 mi NNE 15.0 mph 19.6 mph N/A   Clear
5:35 PM 80.6 °F 21.2 °F 11% 30.11 in 10.0 mi NNE 16.1 mph - N/A   Clear
5:55 PM 80.6 °F 23.0 °F 12% 30.11 in 10.0 mi NNE 16.1 mph - N/A   Clear
6:15 PM 80.6 °F 23.0 °F 12% 30.12 in 10.0 mi NNE 16.1 mph - N/A   Clear
6:35 PM 80.6 °F 23.0 °F 12% 30.12 in 10.0 mi NNE 13.8 mph - N/A   Clear
6:55 PM 80.6 °F 21.2 °F 11% 30.12 in 10.0 mi NNE 11.5 mph - N/A   Clear
7:15 PM 78.8 °F 21.2 °F 12% 30.13 in 10.0 mi NNE 13.8 mph - N/A   Clear
7:35 PM 78.8 °F 21.2 °F 12% 30.13 in 10.0 mi NNE 11.5 mph - N/A   Clear
7:55 PM 78.8 °F 21.2 °F 12% 30.12 in 10.0 mi NNE 12.7 mph - N/A   Clear
8:15 PM 78.8 °F 21.2 °F 12% 30.12 in 10.0 mi NE 12.7 mph - N/A   Clear
8:35 PM 77.0 °F 23.0 °F 13% 30.12 in 10.0 mi NNE 9.2 mph - N/A   Clear
8:55 PM 77.0 °F 24.8 °F 14% 30.12 in 10.0 mi North 8.1 mph - N/A   Clear
9:15 PM 77.0 °F 23.0 °F 13% 30.12 in 10.0 mi NNE 12.7 mph - N/A   Clear
9:35 PM 75.2 °F 26.6 °F 17% 30.12 in 10.0 mi NNW 6.9 mph - N/A   Clear
9:55 PM 73.4 °F 32.0 °F 22% 30.13 in 10.0 mi North 11.5 mph - N/A   Clear
10:15 PM 73.4 °F 28.4 °F 19% 30.12 in 10.0 mi North 9.2 mph - N/A   Clear
10:35 PM 73.4 °F 24.8 °F 16% 30.12 in 10.0 mi NNE 8.1 mph - N/A   Clear
10:55 PM 75.2 °F 24.8 °F 15% 30.12 in 10.0 mi NE 5.8 mph - N/A   Clear
11:15 PM 77.0 °F 21.2 °F 12% 30.12 in 10.0 mi NE 11.5 mph - N/A   Clear
11:35 PM 77.0 °F 21.2 °F 12% 30.12 in 10.0 mi NNE 10.4 mph - N/A   Clear
11:55 PM 75.2 °F 23.0 °F 14% 30.11 in 10.0 mi NNE 5.8 mph - N/A   Clear